Time;durP1;ratioP1;P1;durP2;ratioP2;P2;SDS_P1;SDS_P2;PMS_P1;PMS_P2;Temp;Humidity;BMP_temperature;BMP_pressure;BME280_temperature;BME280_humidity;BME280_pressure;Samples;Min_cycle;Max_cycle;Signal;HPM_P1;HPM_P2
2023/10/10 00:00:23;;;;;;;13.80;5.47;;;;;;;17.65;72.50;99333.47;5092590;28;20028;-48
2023/10/10 00:02:53;;;;;;;15.98;6.32;;;;;;;17.44;72.84;99325.00;5092627;28;20115;-48
2023/10/10 00:05:30;;;;;;;16.77;6.93;;;;;;;17.23;73.35;99329.03;5092759;28;20032;-48
2023/10/10 00:07:59;;;;;;;24.95;6.13;;;;;;;17.12;74.28;99327.97;5092496;28;20027;-48
2023/10/10 00:10:27;;;;;;;21.15;6.57;;;;;;;17.17;74.70;99335.25;5092702;28;20080;-48
2023/10/10 00:12:54;;;;;;;14.90;7.57;;;;;;;17.29;74.33;99324.66;5092451;28;20028;-48
2023/10/10 00:15:26;;;;;;;19.45;6.70;;;;;;;17.41;74.25;99329.97;5092333;28;20020;-48
2023/10/10 00:17:58;;;;;;;20.63;5.63;;;;;;;17.44;73.21;99326.84;5092124;28;20076;-49
2023/10/10 00:20:25;;;;;;;15.13;5.82;;;;;;;17.30;73.48;99329.72;5092508;28;20031;-48
2023/10/10 00:22:58;;;;;;;14.30;6.13;;;;;;;17.19;74.26;99333.16;5092212;28;20024;-48
2023/10/10 00:25:30;;;;;;;11.90;5.93;;;;;;;17.15;74.13;99324.84;5092218;28;20391;-48
2023/10/10 00:28:04;;;;;;;16.85;7.22;;;;;;;17.01;74.58;99320.78;5092259;28;20039;-48
2023/10/10 00:30:34;;;;;;;15.15;6.05;;;;;;;16.99;75.00;99317.56;5092209;28;20039;-48
2023/10/10 00:33:03;;;;;;;14.88;6.07;;;;;;;16.90;74.57;99325.03;5092489;28;20459;-48
2023/10/10 00:35:31;;;;;;;12.70;5.50;;;;;;;16.67;74.70;99327.56;5090775;28;20024;-48
2023/10/10 00:37:57;;;;;;;13.98;5.43;;;;;;;16.43;75.43;99324.78;5092159;28;20042;-48
2023/10/10 00:40:30;;;;;;;15.25;6.07;;;;;;;16.39;76.00;99323.63;5091929;28;20063;-48
2023/10/10 00:42:58;;;;;;;16.30;5.95;;;;;;;16.46;76.23;99319.06;5090688;28;20434;-48
2023/10/10 00:45:28;;;;;;;12.90;5.55;;;;;;;16.50;75.67;99320.22;5091957;28;20020;-48
2023/10/10 00:47:54;;;;;;;14.68;7.78;;;;;;;16.33;75.83;99321.84;5091964;28;20451;-48
2023/10/10 00:50:25;;;;;;;18.83;6.30;;;;;;;16.17;76.39;99321.41;5090870;28;20055;-48
2023/10/10 00:52:55;;;;;;;14.18;6.25;;;;;;;16.09;76.99;99320.91;5091944;28;20028;-48
2023/10/10 00:55:24;;;;;;;13.20;6.05;;;;;;;16.01;77.38;99316.69;5090949;28;20402;-48
2023/10/10 00:57:56;;;;;;;15.40;5.70;;;;;;;16.13;77.88;99319.44;5091857;28;20024;-48
2023/10/10 01:00:25;;;;;;;11.10;5.93;;;;;;;16.07;77.24;99322.97;5091874;28;20570;-48
2023/10/10 01:02:51;;;;;;;16.45;5.85;;;;;;;15.93;77.49;99331.03;5091704;28;20042;-48
2023/10/10 01:05:23;;;;;;;12.70;6.47;;;;;;;15.85;78.04;99344.56;5090524;28;20032;-48
2023/10/10 01:07:51;;;;;;;13.27;6.80;;;;;;;16.00;79.35;99335.44;5091872;28;20504;-48
2023/10/10 01:10:17;;;;;;;15.32;6.30;;;;;;;16.65;79.75;99329.63;5091691;28;20027;-48
2023/10/10 01:12:46;;;;;;;19.05;6.63;;;;;;;17.17;77.71;99322.78;5090360;28;20036;-48
2023/10/10 01:17:39;;;;;;;16.88;6.22;;;;;;;17.13;74.71;99324.28;5091650;28;20085;-48
2023/10/10 01:20:24;;;;;;;18.40;6.90;;;;;;;17.00;75.01;99323.66;5091655;28;20036;-48
2023/10/10 01:22:52;;;;;;;17.20;8.35;;;;;;;16.83;74.96;99315.53;5091635;28;20024;-48
2023/10/10 01:28:02;;;;;;;15.60;6.35;;;;;;;17.39;75.21;99314.28;5091640;28;20035;-48
2023/10/10 01:30:48;;;;;;;14.48;6.20;;;;;;;17.56;73.63;99304.59;5091568;28;20498;-48
2023/10/10 01:33:15;;;;;;;18.27;6.10;;;;;;;17.30;72.17;99307.69;5091772;28;20458;-48
2023/10/10 01:35:44;;;;;;;10.27;5.25;;;;;;;16.93;72.75;99313.16;5090156;28;20028;-47
2023/10/10 01:38:55;;;;;;;19.40;8.68;;;;;;;16.93;76.13;99321.09;5091960;28;20026;-48
2023/10/10 01:41:40;;;;;;;18.95;6.78;;;;;;;16.85;77.60;99316.94;5094015;28;20031;-48
2023/10/10 01:44:12;;;;;;;33.20;19.73;;;;;;;16.72;79.21;99314.41;5095232;28;20115;-47
2023/10/10 01:46:42;;;;;;;17.13;9.57;;;;;;;16.37;79.16;99315.88;5094098;28;20035;-48
2023/10/10 01:49:22;;;;;;;87.63;78.90;;;;;;;15.90;80.08;99320.09;5093985;28;20027;-48
2023/10/10 01:51:58;;;;;;;25.63;18.20;;;;;;;15.77;83.00;99318.38;5095138;28;20024;-48
2023/10/10 01:54:34;;;;;;;28.63;23.65;;;;;;;15.88;84.42;99322.94;5095140;28;20497;-48
2023/10/10 01:57:00;;;;;;;14.77;7.72;;;;;;;15.84;84.16;99316.47;5095261;28;20028;-47
2023/10/10 01:59:37;;;;;;;15.65;6.57;;;;;;;15.65;84.05;99312.94;5094952;28;20020;-48
2023/10/10 02:02:10;;;;;;;14.27;6.65;;;;;;;15.36;84.35;99312.59;5094810;28;20085;-48
2023/10/10 02:04:36;;;;;;;12.68;6.85;;;;;;;15.11;85.16;99311.75;5094925;28;20394;-48
2023/10/10 02:07:08;;;;;;;16.27;6.82;;;;;;;14.93;86.21;99312.50;5094796;28;20038;-48
2023/10/10 02:09:40;;;;;;;17.33;6.28;;;;;;;15.10;88.28;99310.16;5094849;28;20393;-48
2023/10/10 02:12:15;;;;;;;16.60;8.07;;;;;;;15.27;88.44;99310.44;5094751;28;20042;-48
2023/10/10 02:14:43;;;;;;;;;;;;;;;15.37;88.52;99305.47;5095220;28;20062;-48
2023/10/10 02:17:21;;;;;;;13.80;5.68;;;;;;;15.40;87.46;99306.88;5093298;28;20394;-48
2023/10/10 02:19:53;;;;;;;12.90;5.35;;;;;;;15.45;86.42;99296.44;5094724;28;20039;-48
2023/10/10 02:22:33;;;;;;;11.52;5.10;;;;;;;15.44;85.95;99293.00;5094770;28;20485;-48
2023/10/10 02:27:54;;;;;;;11.10;6.10;;;;;;;15.34;85.56;99290.84;5094757;28;20039;-48
2023/10/10 02:30:24;;;;;;;14.23;6.65;;;;;;;15.41;85.70;99287.34;5094392;28;20024;-48
2023/10/10 02:32:50;;;;;;;16.67;5.93;;;;;;;15.57;86.56;99286.78;5094377;28;20028;-48
2023/10/10 02:35:26;;;;;;;17.25;6.25;;;;;;;15.87;86.44;99286.09;5094296;28;20035;-48
2023/10/10 02:37:54;;;;;;;17.30;5.90;;;;;;;16.06;85.46;99281.66;5093004;28;20039;-47
2023/10/10 02:40:30;;;;;;;15.10;5.70;;;;;;;16.13;84.50;99285.00;5094121;28;20024;-47
2023/10/10 02:45:44;;;;;;;8.50;5.60;;;;;;;15.96;83.32;99284.81;5094168;28;20173;-48
2023/10/10 02:48:20;;;;;;;23.27;16.45;;;;;;;15.82;83.45;99281.47;5093909;28;20025;-47
2023/10/10 02:50:45;;;;;;;;;;;;;;;15.85;84.30;99283.69;5094359;28;20020;-47
2023/10/10 02:53:14;;;;;;;15.00;5.85;;;;;;;15.86;82.82;99279.22;5092630;28;19942;-48
2023/10/10 02:55:50;;;;;;;12.55;5.65;;;;;;;15.72;81.77;99276.69;5092770;28;20021;-48
2023/10/10 02:58:27;;;;;;;19.42;6.07;;;;;;;15.69;82.51;99282.38;5093913;28;20050;-47
2023/10/10 03:00:57;;;;;;;18.05;6.75;;;;;;;15.46;81.80;99290.16;5092539;28;20039;-48
2023/10/10 03:03:25;;;;;;;14.70;6.30;;;;;;;15.13;82.06;99283.28;5093712;28;20021;-48
2023/10/10 03:05:51;;;;;;;18.48;6.22;;;;;;;14.88;83.03;99281.41;5093602;28;20067;-48
2023/10/10 03:09:06;;;;;;;22.75;9.93;;;;;;;14.81;83.94;99290.41;5092349;28;20054;-48
2023/10/10 03:11:34;;;;;;;26.52;7.03;;;;;;;15.30;85.43;99281.72;5092247;28;20035;-48
2023/10/10 03:14:07;;;;;;;16.00;6.60;;;;;;;15.78;84.06;99285.59;5093537;28;20024;-48
2023/10/10 03:16:59;;;;;;;19.15;8.35;;;;;;;15.98;82.74;99286.19;5093526;28;20140;-48
2023/10/10 03:19:28;;;;;;;15.38;6.32;;;;;;;16.40;81.38;99285.50;5093240;28;20104;-48
2023/10/10 03:23:09;;;;;;;15.82;6.22;;;;;;;16.55;79.96;99277.16;5093180;28;20500;-47
2023/10/10 03:25:09;;;;;;;14.32;5.65;;;;;;;16.84;78.88;99282.69;5088191;28;20044;-48
2023/10/10 03:31:06;;;;;;;12.93;6.60;;;;;;;17.19;76.50;99282.78;5093276;28;20046;-48
2023/10/10 03:33:29;;;;;;;18.60;5.75;;;;;;;17.39;75.48;99281.66;5087294;28;20040;-48
2023/10/10 05:25:23;;;;;;;14.52;7.40;;;;;;;14.89;77.64;99287.50;5095722;28;20086;-47
2023/10/10 05:27:51;;;;;;;16.83;8.27;;;;;;;14.89;78.34;99292.78;5095646;28;20020;-48
2023/10/10 05:30:39;;;;;;;16.65;6.63;;;;;;;15.10;78.61;99296.94;5095510;28;20020;-47
2023/10/10 05:33:05;;;;;;;17.13;6.35;;;;;;;15.20;77.94;99294.63;5095573;28;20450;-48
2023/10/10 05:35:38;;;;;;;20.67;6.32;;;;;;;15.02;77.28;99294.56;5095434;28;20070;-48
2023/10/10 05:38:09;;;;;;;18.30;7.35;;;;;;;14.73;77.43;99286.22;5095458;28;20031;-48
2023/10/10 05:40:38;;;;;;;16.85;6.20;;;;;;;14.54;78.17;99287.88;5095345;28;20040;-48
2023/10/10 05:43:09;;;;;;;19.48;6.30;;;;;;;14.42;79.03;99279.81;5093924;28;20024;-48
2023/10/10 05:45:36;;;;;;;26.27;5.90;;;;;;;14.54;80.22;99283.41;5095283;28;20411;-48
2023/10/10 05:48:02;;;;;;;30.83;6.85;;;;;;;14.62;79.95;99285.03;5093917;28;20020;-48
2023/10/10 05:50:28;;;;;;;52.90;7.65;;;;;;;14.77;80.03;99284.75;5095099;28;20509;-48
2023/10/10 05:52:53;;;;;;;30.73;6.95;;;;;;;14.90;79.18;99282.03;5093813;28;20173;-48
2023/10/10 05:55:20;;;;;;;25.23;6.15;;;;;;;15.00;79.14;99286.84;5094031;28;20032;-48
2023/10/10 05:57:46;;;;;;;18.38;6.63;;;;;;;14.99;78.60;99295.81;5093666;28;20041;-48
2023/10/10 06:00:13;;;;;;;14.50;5.35;;;;;;;15.13;78.98;99283.28;5095237;28;20099;-48
2023/10/10 06:02:47;;;;;;;23.48;7.28;;;;;;;15.57;78.28;99284.97;5094907;28;20117;-48
2023/10/10 06:05:15;;;;;;;33.75;6.82;;;;;;;16.00;76.73;99279.84;5093826;28;20035;-48
2023/10/10 06:07:44;;;;;;;17.85;8.05;;;;;;;16.27;75.12;99285.66;5093475;28;20524;-48
2023/10/10 06:10:15;;;;;;;39.38;11.88;;;;;;;16.51;73.86;99279.44;5094800;28;20024;-48
2023/10/10 06:12:45;;;;;;;23.55;7.13;;;;;;;16.53;72.40;99282.66;5094905;28;20453;-48
2023/10/10 06:15:18;;;;;;;34.78;7.20;;;;;;;16.51;72.01;99283.94;5093400;28;20107;-48
2023/10/10 06:17:45;;;;;;;33.45;7.85;;;;;;;16.56;71.92;99284.88;5094475;28;20063;-48
2023/10/10 06:20:16;;;;;;;30.77;5.90;;;;;;;16.64;72.39;99286.41;5094588;28;20485;-47
2023/10/10 06:22:45;;;;;;;36.25;6.47;;;;;;;16.90;71.80;99284.44;5094586;28;20024;-48
2023/10/10 06:25:11;;;;;;;26.08;5.88;;;;;;;17.25;70.56;99289.00;5076377;28;20099;-48
2023/10/10 06:27:40;;;;;;;23.98;7.32;;;;;;;17.51;69.51;99285.91;5094522;28;20031;-48
2023/10/10 06:30:26;;;;;;;20.05;8.23;;;;;;;17.58;68.86;99278.63;5094673;28;20031;-48
2023/10/10 06:32:58;;;;;;;30.17;7.05;;;;;;;17.49;67.73;99287.97;5094689;28;20460;-48
2023/10/10 06:35:26;;;;;;;51.47;12.38;;;;;;;17.36;68.15;99290.84;5094308;28;20040;-48
2023/10/10 06:37:52;;;;;;;53.40;9.65;;;;;;;17.47;68.02;99283.94;5094585;28;20028;-48
2023/10/10 06:40:25;;;;;;;33.47;9.73;;;;;;;17.68;67.41;99288.66;5092855;28;20024;-48
2023/10/10 06:42:56;;;;;;;27.23;6.57;;;;;;;17.96;66.64;99284.50;5092882;28;20118;-48
2023/10/10 06:45:27;;;;;;;23.33;5.95;;;;;;;18.17;66.00;99289.22;5094188;28;20024;-48
2023/10/10 06:47:54;;;;;;;32.30;6.47;;;;;;;18.27;65.28;99287.78;5094128;28;20085;-48
2023/10/10 06:50:23;;;;;;;44.65;15.57;;;;;;;18.40;65.02;99289.38;5092734;28;20409;-48
2023/10/10 06:52:52;;;;;;;33.88;7.30;;;;;;;19.02;63.83;99286.81;5076264;28;20385;-48
2023/10/10 06:55:22;;;;;;;20.75;6.22;;;;;;;19.97;61.76;99289.53;5093932;28;20137;-47
2023/10/10 06:57:58;;;;;;;31.20;7.43;;;;;;;20.82;59.16;99279.31;5093801;28;20498;-48
2023/10/10 07:00:29;;;;;;;33.22;7.10;;;;;;;21.48;56.75;99280.91;5092549;28;20486;-45
2023/10/10 07:02:56;;;;;;;44.40;7.45;;;;;;;21.97;55.01;99285.19;5093731;28;20024;-46
2023/10/10 07:05:26;;;;;;;65.45;16.95;;;;;;;22.33;53.79;99284.31;5092376;28;20124;-45
2023/10/10 07:07:57;;;;;;;52.05;10.10;;;;;;;22.76;52.49;99281.47;5093975;28;20032;-46
2023/10/10 07:10:55;;;;;;;54.22;8.30;;;;;;;;;;5093584;28;20028;-46
2023/10/10 07:13:14;;;;;;;57.17;9.15;;;;;;;23.31;50.33;99298.63;5092271;28;20057;-47
2023/10/10 07:15:50;;;;;;;48.95;8.57;;;;;;;23.37;49.32;99304.00;5092191;28;20136;-46
2023/10/10 07:18:22;;;;;;;39.88;7.82;;;;;;;23.48;48.23;99298.34;5093471;28;20044;-45
2023/10/10 07:21:08;;;;;;;22.75;6.05;;;;;;;23.63;47.75;99297.50;5093395;28;20096;-46
2023/10/10 07:23:38;;;;;;;52.05;8.48;;;;;;;23.84;47.29;99300.16;5093296;28;20024;-46
2023/10/10 07:26:25;;;;;;;35.88;7.57;;;;;;;23.95;46.72;99293.72;5091924;28;20024;-46
2023/10/10 07:28:55;;;;;;;106.40;14.48;;;;;;;24.03;46.60;99292.34;5093380;28;20020;-45
2023/10/10 07:31:22;;;;;;;97.72;11.82;;;;;;;24.10;46.93;99296.31;5093513;28;20024;-46
2023/10/10 07:33:55;;;;;;;55.58;10.48;;;;;;;24.36;45.97;99301.56;5091855;28;20024;-46
2023/10/10 07:36:26;;;;;;;111.70;13.77;;;;;;;24.38;45.81;99302.09;5090998;28;20024;-46
2023/10/10 07:39:32;;;;;;;124.63;14.65;;;;;;;24.42;45.75;99308.50;5093070;28;20024;-46
2023/10/10 07:41:47;;;;;;;107.30;11.70;;;;;;;24.47;45.54;99308.50;5092813;28;20043;-46
2023/10/10 07:44:16;;;;;;;77.30;10.50;;;;;;;24.80;45.13;99306.19;5092872;28;20140;-46
2023/10/10 07:47:19;;;;;;;78.72;10.90;;;;;;;25.20;44.34;99306.16;5091567;28;20035;-46
2023/10/10 07:49:28;;;;;;;70.57;9.52;;;;;;;25.78;43.12;99300.00;5092725;28;20495;-46
2023/10/10 07:51:54;;;;;;;59.53;9.10;;;;;;;26.29;42.49;99299.41;5092792;28;20110;-46
2023/10/10 07:54:30;;;;;;;63.95;8.38;;;;;;;26.93;41.55;99297.16;5091487;28;20028;-46
2023/10/10 07:56:56;;;;;;;59.72;8.68;;;;;;;27.72;39.77;99301.75;5092744;28;20482;-46
2023/10/10 07:59:22;;;;;;;47.83;7.50;;;;;;;28.19;38.77;99307.06;5091442;28;20072;-46
2023/10/10 08:01:50;;;;;;;46.28;7.22;;;;;;;28.41;37.73;99299.03;5092647;28;20024;-46
2023/10/10 08:04:16;;;;;;;49.15;7.95;;;;;;;28.64;37.32;99309.91;5092775;28;20378;-46
2023/10/10 08:06:47;;;;;;;41.67;7.32;;;;;;;28.85;36.74;99308.31;5091500;28;20028;-46
2023/10/10 08:11:41;;;;;;;35.90;6.15;;;;;;;29.68;36.33;99305.19;5092285;28;20031;-46
2023/10/10 08:14:08;;;;;;;60.28;8.43;;;;;;;30.28;34.81;99305.69;5091247;28;20561;-46
2023/10/10 08:16:39;;;;;;;54.80;8.45;;;;;;;30.62;34.07;99296.03;5092334;28;20024;-46
2023/10/10 08:19:07;;;;;;;73.00;8.32;;;;;;;30.75;33.67;99303.19;5092050;28;20082;-46
2023/10/10 08:21:38;;;;;;;73.05;11.02;;;;;;;31.05;33.50;99308.78;5092279;28;20054;-46
2023/10/10 08:24:11;;;;;;;50.35;9.57;;;;;;;31.12;33.14;99303.66;5092265;28;20067;-46
2023/10/10 08:26:41;;;;;;;45.40;8.00;;;;;;;31.13;33.42;99310.69;5092185;28;20027;-46
2023/10/10 08:29:11;;;;;;;50.67;9.20;;;;;;;31.09;33.36;99303.50;5092179;28;20039;-46
2023/10/10 08:31:39;;;;;;;37.72;7.38;;;;;;;31.00;34.03;99306.22;5090825;28;20844;-46
2023/10/10 08:34:08;;;;;;;27.75;6.32;;;;;;;29.63;35.97;99313.44;5092123;28;20074;-46
2023/10/10 08:36:35;;;;;;;39.50;7.45;;;;;;;28.18;38.58;99321.66;5074671;28;20048;-46
2023/10/10 08:39:49;;;;;;;29.05;5.65;;;;;;;27.34;40.23;99318.06;5090728;28;20024;-46
2023/10/10 08:41:47;;;;;;;26.52;5.32;;;;;;;26.78;40.99;99318.94;5083461;28;20032;-46
2023/10/10 08:44:17;;;;;;;23.48;5.63;;;;;;;26.78;42.08;99317.03;5090563;28;20081;-46
2023/10/10 08:46:48;;;;;;;21.45;6.18;;;;;;;27.22;40.92;99318.50;5091733;28;20032;-46
2023/10/10 08:49:15;;;;;;;23.38;6.88;;;;;;;28.45;38.51;99318.94;5090627;28;20047;-46
2023/10/10 08:51:45;;;;;;;32.17;15.68;;;;;;;29.72;36.82;99318.09;5090511;28;20085;-46
2023/10/10 08:54:15;;;;;;;40.25;12.55;;;;;;;30.50;35.07;99315.63;5090789;28;20472;-46
2023/10/10 08:57:10;;;;;;;29.10;7.65;;;;;;;31.15;33.36;99308.44;5091694;28;20016;-46
2023/10/10 08:59:42;;;;;;;24.58;7.57;;;;;;;31.80;32.58;99311.13;5091793;28;20029;-46
2023/10/10 09:02:15;;;;;;;34.45;9.52;;;;;;;32.10;32.32;99305.75;5091611;28;20024;-46
2023/10/10 09:04:41;;;;;;;80.90;12.50;;;;;;;32.59;31.87;99308.78;5090429;28;20401;-47
2023/10/10 09:07:19;;;;;;;57.30;10.05;;;;;;;33.09;30.75;99304.34;5091885;28;20025;-46
2023/10/10 09:09:54;;;;;;;40.75;8.18;;;;;;;33.64;29.83;99303.09;5091768;28;20029;-46
2023/10/10 09:12:20;;;;;;;45.00;8.63;;;;;;;34.27;28.59;99296.50;5091722;28;20024;-46
2023/10/10 09:14:53;;;;;;;33.63;8.02;;;;;;;34.04;28.64;99296.97;5090677;28;20038;-46
2023/10/10 09:17:29;;;;;;;44.55;9.10;;;;;;;33.99;28.63;99294.50;5090357;28;20032;-46
2023/10/10 09:20:00;;;;;;;42.75;7.93;;;;;;;34.08;28.28;99295.16;5091610;28;20160;-46
2023/10/10 09:22:42;;;;;;;45.83;8.90;;;;;;;34.22;27.69;99297.53;5091502;28;20032;-46
2023/10/10 09:25:25;;;;;;;63.40;10.57;;;;;;;34.18;28.00;99288.47;5091506;28;20028;-47
2023/10/10 09:28:04;;;;;;;50.25;10.05;;;;;;;34.30;28.02;99293.88;5090555;28;20031;-47
2023/10/10 09:33:23;;;;;;;213.60;27.52;;;;;;;34.45;27.34;99288.84;5089307;28;20060;-47
2023/10/10 09:35:58;;;;;;;161.25;22.60;;;;;;;34.27;27.59;99297.31;5091388;28;20028;-47
2023/10/10 09:38:29;;;;;;;233.30;26.83;;;;;;;34.33;27.68;99289.69;5091388;28;20074;-47
2023/10/10 09:49:51;;;;;;;83.25;11.00;;;;;;;34.28;27.10;99288.00;5090397;28;20031;-46
2023/10/10 09:57:58;;;;;;;111.35;17.27;;;;;;;34.72;27.29;99279.13;5091328;28;20035;-47
2023/10/10 10:06:01;;;;;;;35.97;7.68;;;;;;;34.39;27.99;99275.47;5094907;28;20087;-46
2023/10/10 10:08:38;;;;;;;51.85;9.45;;;;;;;34.55;27.64;99278.28;5094928;28;20089;-46
2023/10/10 10:11:16;;;;;;;31.55;8.00;;;;;;;34.75;27.37;99262.06;5093630;28;20123;-46
2023/10/10 10:13:58;;;;;;;18.90;5.50;;;;;;;35.16;26.69;99270.97;5093683;28;20032;-46
2023/10/10 10:16:44;;;;;;;22.30;6.20;;;;;;;35.49;27.11;99272.56;5094778;28;20024;-46
2023/10/10 10:19:17;;;;;;;26.42;6.78;;;;;;;35.84;26.19;99261.72;5093232;28;20040;-46
2023/10/10 10:22:08;;;;;;;22.30;4.97;;;;;;;36.28;25.49;99260.72;5094603;28;20106;-48
2023/10/10 10:25:07;;;;;;;18.38;5.43;;;;;;;36.77;24.82;99260.94;5094557;28;20341;-48
2023/10/10 10:27:39;;;;;;;26.40;6.45;;;;;;;36.99;25.11;99258.59;5094471;28;20106;-49
2023/10/10 10:30:50;;;;;;;29.55;6.97;;;;;;;37.25;24.27;99257.09;5094421;28;20036;-49
2023/10/10 10:32:59;;;;;;;32.08;6.53;;;;;;;37.09;24.27;99255.25;5091128;28;20516;-49
2023/10/10 10:35:46;;;;;;;16.73;4.68;;;;;;;37.11;24.15;99254.91;5094387;28;20105;-49
2023/10/10 10:38:12;;;;;;;20.48;5.57;;;;;;;37.01;24.15;99255.50;5078904;28;20085;-49
2023/10/10 10:43:16;;;;;;;19.02;5.93;;;;;;;37.14;23.93;99257.72;5094069;28;20024;-49
2023/10/10 10:45:51;;;;;;;31.63;6.57;;;;;;;37.23;23.70;99252.00;5092861;28;20054;-49
2023/10/10 10:48:30;;;;;;;19.55;5.60;;;;;;;37.28;23.58;99248.94;5094368;28;20386;-49
2023/10/10 10:51:22;;;;;;;25.85;6.30;;;;;;;37.46;23.19;99249.25;5094088;28;20028;-49
2023/10/10 10:54:07;;;;;;;26.40;7.00;;;;;;;37.43;23.89;99239.03;5094007;28;20027;-49
2023/10/10 10:59:12;;;;;;;29.35;6.32;;;;;;;37.60;23.68;99236.97;5094036;28;20020;-49
2023/10/10 11:01:45;;;;;;;28.73;6.28;;;;;;;37.53;22.73;99237.59;5093855;28;20157;-49
2023/10/10 11:04:18;;;;;;;26.88;5.43;;;;;;;37.50;22.57;99239.13;5093747;28;20020;-49
2023/10/10 11:07:03;;;;;;;27.60;6.78;;;;;;;37.68;22.68;99230.44;5093805;28;20038;-49
2023/10/10 11:09:31;;;;;;;19.33;5.95;;;;;;;37.72;22.97;99226.56;5093082;28;20110;-49
2023/10/10 11:12:02;;;;;;;52.42;8.55;;;;;;;37.80;22.64;99224.72;5093034;28;20055;-49
2023/10/10 11:14:32;;;;;;;26.00;7.30;;;;;;;38.14;22.10;99214.63;5075634;28;20035;-49
2023/10/10 11:16:58;;;;;;;21.83;5.82;;;;;;;38.33;21.86;99216.41;5093548;28;20064;-49
2023/10/10 11:21:57;;;;;;;18.92;5.10;;;;;;;38.52;21.54;99203.72;5093467;28;20036;-49
2023/10/10 11:24:25;;;;;;;22.85;5.28;;;;;;;38.55;21.06;99197.47;5093353;28;20081;-49
2023/10/10 11:29:28;;;;;;;26.52;5.80;;;;;;;38.39;21.04;99194.94;5093311;28;20035;-49
2023/10/10 11:32:07;;;;;;;25.27;4.95;;;;;;;38.01;21.57;99185.06;5093254;28;20020;-49
2023/10/10 11:34:56;;;;;;;25.05;5.82;;;;;;;38.03;21.75;99182.72;5093299;28;20134;-49
2023/10/10 11:37:32;;;;;;;26.45;5.88;;;;;;;37.55;21.63;99180.50;5092815;28;20081;-49
2023/10/10 11:42:55;;;;;;;28.40;5.57;;;;;;;36.79;22.07;99173.06;5093058;28;20020;-49
2023/10/10 11:45:26;;;;;;;17.88;5.47;;;;;;;37.05;22.00;99177.78;5093212;28;20378;-49
2023/10/10 11:48:00;;;;;;;18.52;5.85;;;;;;;37.46;22.00;99169.81;5075338;28;20114;-48
2023/10/10 11:50:46;;;;;;;44.35;7.20;;;;;;;37.37;21.90;99170.09;5093178;28;20024;-49
2023/10/10 11:53:23;;;;;;;30.30;6.22;;;;;;;37.22;22.27;99164.78;5091062;28;20059;-48
2023/10/10 11:55:52;;;;;;;36.08;7.60;;;;;;;37.20;22.23;99158.88;5092898;28;20413;-49
2023/10/10 11:58:18;;;;;;;16.98;5.40;;;;;;;37.18;22.22;99156.50;5092680;28;20020;-49
2023/10/10 12:03:46;;;;;;;17.95;5.43;;;;;;;37.05;22.10;99155.91;5080111;28;20075;-49
2023/10/10 12:06:26;;;;;;;16.70;4.85;;;;;;;36.77;22.25;99157.00;5092626;28;20053;-49
2023/10/10 12:08:53;;;;;;;18.92;5.00;;;;;;;36.30;22.62;99151.81;5092883;28;20055;-49
2023/10/10 12:11:22;;;;;;;25.25;6.20;;;;;;;36.46;22.67;99143.50;5092497;28;20032;-49
2023/10/10 12:13:50;;;;;;;24.90;5.88;;;;;;;36.63;23.30;99143.09;5091248;28;20021;-49
2023/10/10 12:16:17;;;;;;;21.65;5.13;;;;;;;36.73;22.78;99145.22;5092447;28;20020;-48
2023/10/10 12:18:45;;;;;;;18.60;6.32;;;;;;;36.91;23.17;99145.50;5090933;28;20125;-49
2023/10/10 12:21:19;;;;;;;27.40;6.40;;;;;;;36.97;22.87;99129.59;5091927;28;20016;-49
2023/10/10 12:23:48;;;;;;;23.00;5.68;;;;;;;36.90;22.94;99129.44;5092537;28;20040;-49
2023/10/10 12:26:14;;;;;;;35.95;6.32;;;;;;;36.83;23.13;99124.66;5090986;28;20027;-49
2023/10/10 12:28:40;;;;;;;18.60;5.85;;;;;;;36.84;23.09;99122.72;5090946;28;20028;-49
2023/10/10 12:31:15;;;;;;;20.27;4.90;;;;;;;36.70;23.01;99126.00;5090833;28;20077;-49
2023/10/10 12:33:41;;;;;;;25.55;5.68;;;;;;;36.74;23.17;99126.84;5092475;28;20047;-49
2023/10/10 12:36:10;;;;;;;40.00;6.40;;;;;;;36.61;23.00;99119.97;5090818;28;20505;-49
2023/10/10 12:38:37;;;;;;;25.75;6.68;;;;;;;36.42;23.11;99116.09;5092106;28;20035;-49
2023/10/10 12:41:11;;;;;;;31.08;7.10;;;;;;;36.25;23.43;99111.13;5092000;28;20024;-49
2023/10/10 12:43:37;;;;;;;19.50;5.43;;;;;;;36.28;23.24;99113.94;5092026;28;20020;-49
2023/10/10 12:46:04;;;;;;;44.70;8.45;;;;;;;36.29;23.61;99109.25;5091953;28;20032;-48
2023/10/10 12:48:31;;;;;;;25.50;5.80;;;;;;;36.19;23.26;99111.41;5090692;28;20028;-48
2023/10/10 12:51:01;;;;;;;22.77;5.97;;;;;;;36.00;23.65;99112.19;5091898;28;20032;-49
2023/10/10 12:53:39;;;;;;;17.95;4.93;;;;;;;35.62;23.38;99107.50;5091915;28;20032;-48
2023/10/10 12:56:05;;;;;;;9.20;4.32;;;;;;;34.97;23.56;99106.03;5091849;28;20067;-49
2023/10/10 12:58:32;;;;;;;19.65;5.28;;;;;;;34.46;24.41;99096.94;5091854;28;20024;-49
2023/10/10 13:00:58;;;;;;;27.83;6.18;;;;;;;34.30;24.89;99105.88;5090455;28;20115;-48
2023/10/10 13:03:29;;;;;;;32.53;6.57;;;;;;;34.29;25.17;99096.13;5090568;28;20033;-48
2023/10/10 13:06:00;;;;;;;26.83;5.57;;;;;;;34.36;25.01;99099.03;5091756;28;20102;-46
2023/10/10 13:08:39;;;;;;;30.08;6.07;;;;;;;34.35;24.97;99096.63;5090610;28;20498;-46
2023/10/10 13:11:14;;;;;;;25.63;5.55;;;;;;;34.14;24.87;99092.22;5091728;28;20063;-46
2023/10/10 13:13:52;;;;;;;25.17;5.50;;;;;;;34.05;24.81;99086.13;5091744;28;20039;-46
2023/10/10 13:16:24;;;;;;;22.23;5.15;;;;;;;33.97;25.43;99087.06;5090885;28;20020;-46
2023/10/10 13:18:54;;;;;;;29.80;5.97;;;;;;;33.99;25.04;99082.84;5091560;28;20129;-46
2023/10/10 13:21:20;;;;;;;75.97;11.07;;;;;;;33.87;25.43;99082.91;5090296;28;20086;-46
2023/10/10 13:23:50;;;;;;;44.80;7.55;;;;;;;33.89;25.36;99085.28;5091823;28;20024;-46
2023/10/10 13:26:17;;;;;;;66.82;9.60;;;;;;;33.74;25.68;99082.13;5090226;28;20043;-46
2023/10/10 13:28:46;;;;;;;33.92;5.20;;;;;;;33.58;25.66;99078.53;5091530;28;20048;-46
2023/10/10 13:31:19;;;;;;;38.55;9.05;;;;;;;33.34;26.56;99071.22;5091639;28;20071;-46
2023/10/10 13:33:45;;;;;;;30.92;7.50;;;;;;;33.27;26.57;99076.44;5091475;28;20032;-46
2023/10/10 13:36:15;;;;;;;25.83;6.78;;;;;;;33.08;27.15;99085.94;5094257;28;20073;-46
2023/10/10 13:38:48;;;;;;;30.00;6.57;;;;;;;32.75;27.43;99077.91;5095470;28;20493;-46
2023/10/10 13:41:19;;;;;;;20.88;4.45;;;;;;;32.14;28.24;99087.50;5094189;28;20040;-46
2023/10/10 13:43:47;;;;;;;36.00;6.28;;;;;;;31.51;28.84;99078.56;5095396;28;20028;-46
2023/10/10 13:46:18;;;;;;;22.92;5.30;;;;;;;31.10;29.68;99086.28;5095333;28;20020;-46
2023/10/10 13:48:47;;;;;;;19.65;4.85;;;;;;;30.97;29.34;99079.16;5094159;28;20024;-46
2023/10/10 13:51:14;;;;;;;16.75;5.15;;;;;;;30.76;30.27;99085.28;5095477;28;20107;-46
2023/10/10 13:53:44;;;;;;;25.63;6.13;;;;;;;30.61;30.89;99078.50;5095170;28;20031;-46
2023/10/10 13:56:12;;;;;;;21.98;6.60;;;;;;;30.76;31.02;99079.88;5093813;28;20027;-46
2023/10/10 13:58:40;;;;;;;18.77;5.53;;;;;;;31.01;30.75;99072.00;5095006;28;20497;-46
2023/10/10 14:01:36;;;;;;;27.55;6.00;;;;;;;31.04;30.66;99071.31;5095049;28;20032;-46
2023/10/10 14:06:54;;;;;;;28.88;5.68;;;;;;;30.92;30.70;99071.22;5085636;28;20127;-46
2023/10/10 14:09:24;;;;;;;24.27;5.82;;;;;;;30.98;30.72;99062.56;5093641;28;20020;-46
2023/10/10 14:11:51;;;;;;;20.80;6.00;;;;;;;30.92;30.87;99057.66;5094945;28;20448;-46
2023/10/10 14:14:18;;;;;;;19.77;5.47;;;;;;;30.51;31.21;99062.59;5093511;28;20112;-46
2023/10/10 14:16:44;;;;;;;16.67;4.85;;;;;;;30.18;32.02;99052.28;5094782;28;20405;-46
2023/10/10 14:19:10;;;;;;;33.83;6.93;;;;;;;29.96;32.94;99060.59;5094518;28;20040;-46
2023/10/10 14:21:38;;;;;;;26.27;5.18;;;;;;;30.08;32.91;99049.91;5094719;28;20437;-46
2023/10/10 14:24:06;;;;;;;23.45;5.70;;;;;;;30.23;32.30;99056.75;5094599;28;20141;-46
2023/10/10 14:26:35;;;;;;;45.25;7.57;;;;;;;30.45;32.47;99050.34;5094526;28;20020;-46
2023/10/10 14:29:08;;;;;;;45.03;7.03;;;;;;;30.74;32.07;99049.59;5093179;28;20081;-47
2023/10/10 14:31:42;;;;;;;34.55;6.65;;;;;;;30.88;32.35;99045.88;5094754;28;20170;-46
2023/10/10 14:34:10;;;;;;;44.95;7.25;;;;;;;30.75;33.12;99045.78;5094756;28;20123;-46